createdAt,value
2024-01-30T00:00:40.746Z,75.33
2024-01-30T00:03:02.596Z,75.05
2024-01-30T00:05:24.341Z,74.99
2024-01-30T00:07:46.266Z,75.00
2024-01-30T00:10:08.479Z,75.05
2024-01-30T00:12:30.331Z,74.97
2024-01-30T00:14:55.073Z,75.28
2024-01-30T00:17:17.123Z,75.33
2024-01-30T00:19:39.011Z,75.09
2024-01-30T00:22:00.906Z,75.25
2024-01-30T00:24:22.717Z,75.27
2024-01-30T00:26:44.520Z,75.09
2024-01-30T00:29:06.308Z,75.50
2024-01-30T00:31:28.140Z,75.32
2024-01-30T00:33:49.931Z,75.04
2024-01-30T00:36:12.672Z,75.30
2024-01-30T00:38:34.437Z,75.31
2024-01-30T00:40:56.155Z,75.58
2024-01-30T00:43:18.016Z,75.22
2024-01-30T00:45:39.859Z,75.34
2024-01-30T00:48:01.714Z,75.61
2024-01-30T00:50:23.662Z,75.56
2024-01-30T00:52:46.542Z,75.60
2024-01-30T00:55:08.598Z,75.89
2024-01-30T00:57:30.415Z,75.43
2024-01-30T00:59:52.172Z,75.25
2024-01-30T01:02:14.954Z,75.46
2024-01-30T01:04:36.914Z,75.39
2024-01-30T01:06:58.779Z,75.58
2024-01-30T01:09:20.736Z,75.63
2024-01-30T01:11:42.483Z,75.52
2024-01-30T01:14:04.396Z,75.63
2024-01-30T01:16:26.230Z,75.73
2024-01-30T01:18:48.137Z,75.49
2024-01-30T01:21:10.064Z,75.68
2024-01-30T01:23:31.817Z,75.84
2024-01-30T01:25:53.533Z,75.76
2024-01-30T01:28:15.398Z,75.54
2024-01-30T01:30:38.092Z,76.34
2024-01-30T01:33:02.390Z,75.78
2024-01-30T01:35:28.769Z,75.75
2024-01-30T01:37:55.752Z,75.86
2024-01-30T01:40:17.751Z,75.81
2024-01-30T01:42:39.619Z,76.03
2024-01-30T01:45:01.408Z,76.24
2024-01-30T01:47:23.465Z,76.19
2024-01-30T01:49:45.624Z,76.18
2024-01-30T01:52:08.165Z,76.20
2024-01-30T01:54:34.057Z,76.06
2024-01-30T01:56:56.112Z,76.26
2024-01-30T01:59:19.204Z,76.26
2024-01-30T02:01:42.831Z,76.42
2024-01-30T02:04:05.819Z,76.45
2024-01-30T02:06:28.794Z,76.66
2024-01-30T02:08:50.600Z,76.47
2024-01-30T02:11:12.651Z,76.53
2024-01-30T02:13:34.323Z,76.68
2024-01-30T02:15:56.395Z,76.42
2024-01-30T02:18:18.631Z,76.47
2024-01-30T02:20:40.589Z,76.64
2024-01-30T02:23:03.485Z,76.84
2024-01-30T02:25:40.287Z,76.60
2024-01-30T02:28:02.092Z,76.72
2024-01-30T02:30:23.959Z,76.84
2024-01-30T02:32:45.789Z,76.66
2024-01-30T02:35:07.809Z,76.95
2024-01-30T02:37:29.608Z,76.42
2024-01-30T02:39:51.576Z,76.62
2024-01-30T02:42:13.366Z,76.73
2024-01-30T02:44:35.216Z,76.63
2024-01-30T02:46:57.137Z,76.61
2024-01-30T02:49:18.992Z,76.62
2024-01-30T02:51:40.845Z,76.58
2024-01-30T02:54:02.601Z,76.50
2024-01-30T02:56:24.313Z,76.69
2024-01-30T02:58:46.037Z,76.67
2024-01-30T03:01:08.462Z,76.49
2024-01-30T03:03:30.318Z,76.53
2024-01-30T03:05:52.114Z,76.88
2024-01-30T03:08:13.983Z,76.72
2024-01-30T03:10:35.948Z,76.67
2024-01-30T03:12:58.530Z,76.51
2024-01-30T03:15:20.226Z,77.05
2024-01-30T03:17:42.325Z,76.95
2024-01-30T03:20:07.270Z,76.90
2024-01-30T03:22:29.045Z,76.68
2024-01-30T03:24:50.884Z,76.79
2024-01-30T03:27:12.811Z,77.07
2024-01-30T03:29:34.598Z,76.59
2024-01-30T03:31:56.337Z,76.87
2024-01-30T03:34:18.988Z,76.54
2024-01-30T03:36:41.115Z,76.80
2024-01-30T03:39:03.200Z,76.71
2024-01-30T03:41:24.964Z,76.68
2024-01-30T03:43:47.817Z,76.64
2024-01-30T03:46:09.701Z,76.82
2024-01-30T03:48:32.038Z,77.22
2024-01-30T03:50:53.798Z,77.38
2024-01-30T03:53:15.586Z,77.32
2024-01-30T03:55:37.374Z,77.00
2024-01-30T03:57:59.226Z,77.32
2024-01-30T04:00:21.061Z,76.95
2024-01-30T04:02:42.806Z,76.91
2024-01-30T04:05:05.039Z,77.02
2024-01-30T04:07:26.900Z,77.02
2024-01-30T04:09:48.627Z,76.94
2024-01-30T04:12:10.407Z,76.94
2024-01-30T04:14:32.245Z,76.85
2024-01-30T04:16:53.951Z,76.74
2024-01-30T04:19:15.910Z,76.78
2024-01-30T04:21:37.852Z,76.74
2024-01-30T04:23:59.564Z,77.14
2024-01-30T04:26:21.570Z,77.07
2024-01-30T04:28:45.480Z,76.78
2024-01-30T04:31:07.261Z,76.85
2024-01-30T04:33:29.117Z,77.12
2024-01-30T04:35:51.081Z,76.83
2024-01-30T04:38:12.910Z,77.21
2024-01-30T04:40:34.757Z,76.71
2024-01-30T04:42:56.561Z,76.76
2024-01-30T04:45:18.331Z,77.02
2024-01-30T04:47:40.144Z,76.79
2024-01-30T04:50:03.709Z,76.92
2024-01-30T04:52:25.647Z,77.52
2024-01-30T04:54:47.386Z,77.21
2024-01-30T04:57:10.700Z,77.36
2024-01-30T04:59:32.386Z,77.61
2024-01-30T05:01:54.363Z,77.77
2024-01-30T05:04:17.559Z,77.75
2024-01-30T05:06:39.606Z,77.66
2024-01-30T05:09:01.329Z,77.88
2024-01-30T05:11:23.175Z,78.05
2024-01-30T05:13:44.865Z,78.12
2024-01-30T05:16:06.850Z,78.23
2024-01-30T05:18:28.744Z,78.37
2024-01-30T05:20:53.484Z,79.23
2024-01-30T05:23:15.178Z,79.55
2024-01-30T05:25:36.941Z,80.58
2024-01-30T05:27:58.792Z,80.56
2024-01-30T05:30:20.652Z,80.53
2024-01-30T05:32:42.480Z,80.70
2024-01-30T05:35:05.166Z,80.71
2024-01-30T05:37:26.906Z,80.90
2024-01-30T05:39:48.602Z,80.88
2024-01-30T05:42:11.202Z,81.14
2024-01-30T05:44:32.898Z,81.27
2024-01-30T05:46:54.810Z,81.04
2024-01-30T05:49:16.662Z,80.64
2024-01-30T05:51:38.435Z,80.58
2024-01-30T05:54:00.316Z,80.24
2024-01-30T05:56:22.068Z,79.97
2024-01-30T05:58:44.500Z,79.95
2024-01-30T06:01:09.998Z,79.44
2024-01-30T06:03:31.765Z,79.63
2024-01-30T06:05:53.591Z,79.53
2024-01-30T06:08:15.397Z,79.39
2024-01-30T06:10:37.262Z,79.39
2024-01-30T06:12:59.059Z,79.65
2024-01-30T06:15:20.770Z,79.79
2024-01-30T06:17:42.541Z,80.06
2024-01-30T06:20:05.359Z,79.74
2024-01-30T06:22:27.107Z,79.83
2024-01-30T06:24:51.659Z,79.77
2024-01-30T06:27:16.402Z,79.64
2024-01-30T06:29:38.108Z,79.90
2024-01-30T06:32:00.631Z,79.54
2024-01-30T06:34:22.920Z,79.78
2024-01-30T06:36:44.688Z,79.79
2024-01-30T06:39:06.740Z,79.42
2024-01-30T06:41:28.488Z,79.61
2024-01-30T06:43:51.110Z,79.41
2024-01-30T06:46:14.077Z,79.30
2024-01-30T06:48:35.897Z,79.28
2024-01-30T06:50:58.785Z,79.64
2024-01-30T06:53:20.884Z,79.56
2024-01-30T06:55:42.691Z,79.27
2024-01-30T06:58:04.776Z,79.27
2024-01-30T07:00:26.467Z,79.73
2024-01-30T07:02:48.137Z,79.78
2024-01-30T07:05:11.175Z,79.41
2024-01-30T07:07:33.063Z,79.24
2024-01-30T07:09:57.904Z,79.12
2024-01-30T07:12:19.929Z,79.10
2024-01-30T07:14:41.751Z,79.27
2024-01-30T07:17:03.590Z,79.11
2024-01-30T07:19:25.783Z,78.88
2024-01-30T07:21:47.547Z,78.92
2024-01-30T07:24:09.415Z,78.85
2024-01-30T07:26:31.124Z,78.73
2024-01-30T07:28:52.968Z,79.02
2024-01-30T07:31:14.843Z,79.35
2024-01-30T07:33:37.047Z,79.57
2024-01-30T07:35:58.952Z,79.67
2024-01-30T07:38:21.295Z,79.89
2024-01-30T07:40:43.202Z,80.25
2024-01-30T07:43:05.155Z,80.33
2024-01-30T07:45:28.770Z,80.42
2024-01-30T07:47:51.443Z,80.89
2024-01-30T07:50:13.869Z,80.47
2024-01-30T07:52:35.767Z,80.73
2024-01-30T07:54:57.749Z,80.89
2024-01-30T07:57:19.799Z,80.72
2024-01-30T07:59:45.477Z,80.56
2024-01-30T08:02:07.444Z,80.37
2024-01-30T08:04:29.463Z,80.60
2024-01-30T08:06:51.427Z,80.43
2024-01-30T08:09:13.514Z,80.63
2024-01-30T08:11:35.347Z,80.54
2024-01-30T08:13:57.128Z,80.50
2024-01-30T08:16:19.284Z,80.67
2024-01-30T08:18:41.204Z,80.60
2024-01-30T08:21:03.088Z,81.19
2024-01-30T08:23:24.961Z,81.17
2024-01-30T08:25:46.814Z,81.21
2024-01-30T08:28:09.306Z,80.94
2024-01-30T08:30:31.230Z,80.99
2024-01-30T08:32:53.086Z,80.86
2024-01-30T08:35:17.254Z,80.87
2024-01-30T08:37:39.173Z,80.71
2024-01-30T08:40:01.221Z,80.49
2024-01-30T08:42:24.067Z,80.76
2024-01-30T08:44:46.150Z,80.70
2024-01-30T08:47:07.920Z,80.40
2024-01-30T08:49:29.790Z,80.27
2024-01-30T08:51:52.005Z,80.39
2024-01-30T08:54:13.903Z,80.24
2024-01-30T08:56:36.434Z,79.70
2024-01-30T08:58:58.453Z,80.16
2024-01-30T09:01:20.357Z,79.76
2024-01-30T09:03:44.549Z,79.78
2024-01-30T09:06:13.060Z,79.65
2024-01-30T09:08:34.892Z,79.93
2024-01-30T09:10:57.241Z,79.67
2024-01-30T09:13:19.457Z,79.69
2024-01-30T09:15:41.598Z,79.31
2024-01-30T09:18:04.587Z,79.54
2024-01-30T09:20:26.409Z,79.61
2024-01-30T09:22:48.203Z,79.64
2024-01-30T09:25:11.165Z,79.38
2024-01-30T09:27:33.358Z,79.77
2024-01-30T09:29:55.628Z,79.25
2024-01-30T09:32:18.913Z,79.39
2024-01-30T09:34:41.120Z,79.18
2024-01-30T09:37:04.381Z,79.19
2024-01-30T09:39:26.366Z,79.02
2024-01-30T09:42:07.605Z,78.88
2024-01-30T09:44:31.889Z,79.12
2024-01-30T09:46:53.913Z,79.13
2024-01-30T09:49:17.692Z,79.04
2024-01-30T09:51:41.012Z,78.87
2024-01-30T09:54:04.216Z,78.69
2024-01-30T09:56:27.327Z,78.69
2024-01-30T09:58:49.794Z,78.78
2024-01-30T10:01:12.075Z,78.67
2024-01-30T10:03:34.081Z,78.64
2024-01-30T10:05:57.283Z,78.39
2024-01-30T10:08:22.444Z,78.59
2024-01-30T10:10:48.261Z,78.44
2024-01-30T10:13:11.699Z,78.32
2024-01-30T10:15:36.348Z,78.50
2024-01-30T10:17:58.741Z,78.96
2024-01-30T10:20:21.061Z,78.44
2024-01-30T10:22:46.879Z,78.65
2024-01-30T10:25:09.090Z,78.47
2024-01-30T10:27:31.761Z,78.57
2024-01-30T10:29:53.845Z,78.37
2024-01-30T10:32:16.504Z,78.16
2024-01-30T10:34:38.428Z,78.19
2024-01-30T10:37:16.709Z,78.24
2024-01-30T10:39:41.100Z,78.13
2024-01-30T10:42:07.365Z,78.15
2024-01-30T10:44:40.330Z,78.01
2024-01-30T10:47:09.449Z,78.04
2024-01-30T10:49:32.453Z,77.95
2024-01-30T10:51:56.988Z,78.07
2024-01-30T10:54:20.740Z,77.73
2024-01-30T10:56:44.066Z,77.94
2024-01-30T10:59:07.456Z,77.86
2024-01-30T11:01:31.764Z,78.31
2024-01-30T11:03:55.250Z,77.88
2024-01-30T11:06:19.575Z,77.77
2024-01-30T11:08:41.646Z,77.95
2024-01-30T11:11:11.080Z,77.77
2024-01-30T11:13:33.353Z,77.68
2024-01-30T11:15:55.445Z,77.09
2024-01-30T11:18:29.897Z,76.77
2024-01-30T11:20:51.726Z,76.95
2024-01-30T11:23:13.557Z,76.85
2024-01-30T11:25:35.771Z,76.43
2024-01-30T11:27:57.881Z,76.05
2024-01-30T11:30:31.617Z,76.09
2024-01-30T11:33:03.825Z,75.72
2024-01-30T11:35:26.581Z,75.71
2024-01-30T11:37:50.598Z,75.45
2024-01-30T11:40:12.611Z,75.67
2024-01-30T11:42:37.972Z,75.37
2024-01-30T11:45:03.778Z,75.69
2024-01-30T11:47:25.700Z,75.57
2024-01-30T11:49:47.558Z,75.18
2024-01-30T11:52:09.432Z,75.31
2024-01-30T11:54:31.309Z,75.17
2024-01-30T11:56:53.590Z,74.82
2024-01-30T11:59:15.854Z,74.82
2024-01-30T12:01:38.244Z,74.79
2024-01-30T12:04:01.048Z,74.35
2024-01-30T12:06:22.875Z,74.01
2024-01-30T12:09:02.244Z,72.12
2024-01-30T12:11:24.021Z,71.53
2024-01-30T12:13:46.378Z,70.84
2024-01-30T12:16:08.524Z,71.29
2024-01-30T12:18:30.412Z,70.87
2024-01-30T12:21:03.785Z,70.06
2024-01-30T12:23:26.957Z,68.14
2024-01-30T12:25:48.791Z,67.93
2024-01-30T12:28:12.735Z,67.40
2024-01-30T12:30:36.350Z,66.08
2024-01-30T12:32:58.179Z,66.02
2024-01-30T12:35:22.294Z,65.51
2024-01-30T12:37:48.198Z,65.25
2024-01-30T12:40:11.032Z,65.67
2024-01-30T12:42:33.029Z,65.24
2024-01-30T12:44:54.901Z,64.63
2024-01-30T12:47:17.509Z,64.68
2024-01-30T12:49:39.325Z,64.87
2024-01-30T12:52:01.462Z,64.53
2024-01-30T12:54:24.608Z,63.79
2024-01-30T12:56:46.393Z,63.24
2024-01-30T12:59:08.215Z,61.63
2024-01-30T13:01:30.085Z,61.69
2024-01-30T13:03:52.094Z,60.99
2024-01-30T13:06:14.184Z,60.53
2024-01-30T13:08:35.958Z,60.43
2024-01-30T13:10:57.659Z,59.35
2024-01-30T13:13:20.839Z,59.43
2024-01-30T13:15:43.157Z,59.21
2024-01-30T13:18:06.477Z,59.57
2024-01-30T13:20:28.412Z,59.12
2024-01-30T13:22:53.062Z,59.37
2024-01-30T13:25:14.911Z,59.75
2024-01-30T13:27:40.070Z,59.38
2024-01-30T13:30:01.945Z,58.51
2024-01-30T13:32:23.670Z,57.71
2024-01-30T13:34:45.563Z,58.93
2024-01-30T13:37:07.436Z,58.53
2024-01-30T13:39:33.655Z,58.31
2024-01-30T13:41:58.244Z,58.07
2024-01-30T13:44:21.942Z,58.60
2024-01-30T13:46:44.673Z,59.04
2024-01-30T13:49:06.585Z,59.44
2024-01-30T13:51:29.169Z,59.28
2024-01-30T13:53:51.467Z,59.38
2024-01-30T13:56:13.255Z,59.76
2024-01-30T13:58:37.272Z,59.83
2024-01-30T14:00:59.112Z,59.82
2024-01-30T14:03:21.206Z,59.05
2024-01-30T14:05:42.973Z,59.23
2024-01-30T14:08:06.637Z,59.68
2024-01-30T14:10:28.504Z,59.97
2024-01-30T14:12:50.285Z,59.74
2024-01-30T14:15:20.142Z,59.98
2024-01-30T14:17:50.868Z,60.51
2024-01-30T14:20:13.076Z,61.08
2024-01-30T14:22:35.622Z,60.81
2024-01-30T14:24:57.641Z,61.16
2024-01-30T14:27:19.690Z,61.39
2024-01-30T14:29:43.554Z,61.84
2024-01-30T14:32:06.073Z,61.44
2024-01-30T14:34:28.441Z,62.07
2024-01-30T14:36:50.532Z,61.65
2024-01-30T14:39:12.285Z,61.99
2024-01-30T14:41:34.290Z,62.26
2024-01-30T14:43:56.313Z,62.55
2024-01-30T14:46:18.635Z,62.79
2024-01-30T14:48:40.413Z,63.51
2024-01-30T14:51:02.330Z,64.12
2024-01-30T14:53:24.079Z,64.85
2024-01-30T14:55:45.832Z,65.25
2024-01-30T14:58:07.792Z,66.16
2024-01-30T15:00:29.655Z,67.58
2024-01-30T15:02:51.440Z,68.72
2024-01-30T15:05:13.936Z,70.13
2024-01-30T15:07:39.990Z,70.86
2024-01-30T15:10:04.679Z,71.33
2024-01-30T15:12:26.681Z,72.10
2024-01-30T15:14:51.829Z,72.13
2024-01-30T15:17:13.724Z,73.05
2024-01-30T15:19:35.576Z,73.47
2024-01-30T15:21:57.478Z,74.14
2024-01-30T15:24:21.265Z,74.51
2024-01-30T15:26:43.390Z,74.62
2024-01-30T15:29:05.835Z,74.85
2024-01-30T15:31:27.640Z,75.25
2024-01-30T15:33:49.504Z,74.80
2024-01-30T15:36:14.513Z,74.89
2024-01-30T15:38:36.531Z,75.06
2024-01-30T15:40:59.936Z,74.99
2024-01-30T15:43:21.833Z,75.05
2024-01-30T15:45:43.531Z,74.97
2024-01-30T15:48:06.292Z,75.05
2024-01-30T15:50:28.058Z,75.47
2024-01-30T15:52:49.826Z,75.57
2024-01-30T15:55:13.236Z,75.12
2024-01-30T15:57:35.022Z,75.04
2024-01-30T15:59:57.129Z,75.28
2024-01-30T16:02:20.782Z,75.08
2024-01-30T16:04:42.712Z,74.91
2024-01-30T16:07:04.988Z,74.92
2024-01-30T16:09:26.998Z,75.00
2024-01-30T16:11:49.219Z,75.03
2024-01-30T16:14:11.146Z,75.03
2024-01-30T16:16:35.150Z,75.09
2024-01-30T16:18:57.126Z,74.72
2024-01-30T16:21:19.005Z,74.71
2024-01-30T16:23:41.032Z,74.38
2024-01-30T16:26:02.841Z,74.64
2024-01-30T16:28:29.802Z,74.58
2024-01-30T16:30:51.756Z,74.66
2024-01-30T16:33:13.661Z,74.86
2024-01-30T16:35:45.401Z,75.31
2024-01-30T16:38:08.859Z,75.38
2024-01-30T16:40:30.636Z,75.51
2024-01-30T16:42:52.386Z,75.83
2024-01-30T16:45:14.553Z,76.06
2024-01-30T16:47:36.492Z,76.35
2024-01-30T16:50:00.416Z,76.13
2024-01-30T16:52:23.074Z,76.67
2024-01-30T16:54:44.880Z,77.18
2024-01-30T16:57:06.648Z,77.36
2024-01-30T16:59:28.400Z,78.24
2024-01-30T17:01:50.355Z,78.61
2024-01-30T17:04:13.188Z,79.58
2024-01-30T17:06:34.973Z,80.08
2024-01-30T17:08:56.881Z,80.99
2024-01-30T17:11:19.312Z,80.85
2024-01-30T17:13:41.017Z,81.68
2024-01-30T17:16:03.889Z,81.87
2024-01-30T17:18:27.296Z,82.41
2024-01-30T17:20:49.048Z,82.78
2024-01-30T17:23:11.686Z,83.06
2024-01-30T17:25:35.154Z,83.72
2024-01-30T17:27:59.030Z,83.48
2024-01-30T17:30:24.641Z,83.69
2024-01-30T17:32:46.395Z,83.81
2024-01-30T17:37:30.731Z,84.44
2024-01-30T17:39:52.696Z,84.60
2024-01-30T17:42:15.200Z,84.71
2024-01-30T17:44:41.059Z,84.52
2024-01-30T17:47:03.115Z,85.03
2024-01-30T17:49:26.581Z,84.59
2024-01-30T17:51:49.019Z,85.23
2024-01-30T17:54:10.773Z,84.78
2024-01-30T17:56:32.587Z,84.97
2024-01-30T17:58:54.318Z,85.20
2024-01-30T18:01:16.398Z,85.16
2024-01-30T18:03:38.297Z,85.20
2024-01-30T18:06:01.102Z,84.82
2024-01-30T18:08:24.219Z,85.10
2024-01-30T18:10:46.215Z,85.08
2024-01-30T18:13:09.538Z,85.38
2024-01-30T18:15:31.605Z,85.43
2024-01-30T18:17:53.542Z,85.95
2024-01-30T18:20:15.439Z,86.01
2024-01-30T18:22:39.575Z,86.19
2024-01-30T18:25:01.383Z,86.69
2024-01-30T18:27:23.424Z,86.69
2024-01-30T18:29:45.108Z,86.76
2024-01-30T18:32:07.255Z,86.97
2024-01-30T18:34:29.131Z,87.00
2024-01-30T18:36:50.862Z,87.29
2024-01-30T18:39:12.757Z,87.06
2024-01-30T18:41:34.482Z,86.87
2024-01-30T18:43:56.318Z,86.92
2024-01-30T18:46:23.437Z,86.96
2024-01-30T18:48:46.963Z,86.89
2024-01-30T18:51:19.146Z,86.90
2024-01-30T18:53:40.916Z,87.35
2024-01-30T18:56:03.705Z,87.40
2024-01-30T18:58:25.810Z,87.41
2024-01-30T19:00:49.929Z,87.27
2024-01-30T19:03:11.908Z,87.13
2024-01-30T19:05:34.870Z,87.09
2024-01-30T19:07:56.696Z,87.54
2024-01-30T19:10:25.909Z,87.53
2024-01-30T19:12:54.540Z,86.97
2024-01-30T19:15:16.357Z,87.40
2024-01-30T19:17:38.508Z,87.20
2024-01-30T19:20:00.482Z,87.55
2024-01-30T19:22:22.418Z,87.48
2024-01-30T19:24:44.215Z,87.57
2024-01-30T19:27:05.969Z,87.38
2024-01-30T19:29:27.693Z,87.60
2024-01-30T19:31:52.419Z,87.57
2024-01-30T19:34:14.312Z,87.71
2024-01-30T19:36:37.192Z,87.47
2024-01-30T19:38:59.935Z,87.78
2024-01-30T19:41:21.678Z,88.00
2024-01-30T19:43:43.732Z,88.14
2024-01-30T19:46:05.737Z,87.90
2024-01-30T19:48:27.537Z,88.57
2024-01-30T19:50:49.287Z,88.50
2024-01-30T19:53:11.073Z,88.30
2024-01-30T19:55:33.059Z,88.49
2024-01-30T19:57:54.881Z,88.07
2024-01-30T20:00:17.017Z,88.32
2024-01-30T20:02:38.748Z,88.51
2024-01-30T20:05:00.858Z,88.83
2024-01-30T20:07:22.746Z,88.68
2024-01-30T20:09:44.867Z,88.40
2024-01-30T20:12:07.313Z,88.31
2024-01-30T20:14:30.592Z,88.36
2024-01-30T20:16:52.360Z,87.94
2024-01-30T20:19:14.348Z,88.03
2024-01-30T20:21:39.698Z,88.28
2024-01-30T20:24:01.729Z,88.06
2024-01-30T20:26:23.468Z,88.27
2024-01-30T20:28:45.228Z,88.02
2024-01-30T20:31:07.185Z,88.59
2024-01-30T20:33:29.069Z,88.36
2024-01-30T20:35:51.682Z,88.41
2024-01-30T20:38:14.818Z,88.68
2024-01-30T20:40:39.006Z,88.86
2024-01-30T20:43:00.953Z,88.94
2024-01-30T20:45:23.932Z,89.12
2024-01-30T20:47:45.769Z,89.08
2024-01-30T20:50:08.235Z,88.61
2024-01-30T20:52:30.158Z,87.92
2024-01-30T20:54:52.833Z,87.90
2024-01-30T20:57:14.677Z,87.81
2024-01-30T20:59:36.403Z,87.51
2024-01-30T21:01:58.175Z,87.94
2024-01-30T21:04:20.064Z,87.72
2024-01-30T21:06:41.913Z,87.68
2024-01-30T21:09:04.173Z,87.72
2024-01-30T21:11:25.896Z,87.78
2024-01-30T21:13:47.730Z,87.72
2024-01-30T21:16:10.674Z,87.66
2024-01-30T21:18:32.473Z,87.42
2024-01-30T21:20:55.947Z,87.82
2024-01-30T21:23:17.690Z,87.42
2024-01-30T21:25:39.492Z,87.36
2024-01-30T21:28:01.352Z,87.60
2024-01-30T21:30:23.050Z,87.74
2024-01-30T21:32:44.840Z,87.43
2024-01-30T21:35:07.706Z,87.52
2024-01-30T21:37:29.686Z,87.68
2024-01-30T21:39:51.554Z,87.35
2024-01-30T21:42:13.677Z,87.28
2024-01-30T21:44:35.426Z,87.54
2024-01-30T21:46:57.255Z,87.34
2024-01-30T21:49:19.067Z,87.25
2024-01-30T21:51:43.161Z,87.47
2024-01-30T21:54:04.942Z,87.13
2024-01-30T21:56:26.694Z,87.30
2024-01-30T21:58:51.644Z,87.02
2024-01-30T22:01:16.515Z,87.18
2024-01-30T22:03:40.180Z,87.58
2024-01-30T22:06:02.073Z,87.30
2024-01-30T22:08:23.897Z,87.12
2024-01-30T22:10:45.764Z,86.98
2024-01-30T22:13:07.684Z,87.04
2024-01-30T22:15:30.427Z,87.20
2024-01-30T22:17:52.307Z,87.15
2024-01-30T22:20:14.252Z,87.05
2024-01-30T22:22:36.644Z,86.71
2024-01-30T22:24:58.608Z,86.64
2024-01-30T22:27:20.445Z,86.88
2024-01-30T22:29:42.592Z,86.97
2024-01-30T22:32:05.573Z,86.86
2024-01-30T22:34:28.787Z,86.74
2024-01-30T22:36:50.679Z,86.58
2024-01-30T22:39:12.360Z,86.77
2024-01-30T22:41:34.100Z,86.86
2024-01-30T22:43:56.144Z,86.63
2024-01-30T22:46:20.542Z,86.61
2024-01-30T22:48:42.858Z,86.66
2024-01-30T22:51:04.928Z,86.36
2024-01-30T22:53:26.737Z,86.33
2024-01-30T22:55:48.489Z,86.54
2024-01-30T22:58:10.346Z,86.16
2024-01-30T23:00:32.824Z,86.27
2024-01-30T23:02:55.701Z,86.11
2024-01-30T23:05:17.495Z,85.82
2024-01-30T23:07:41.249Z,85.69
2024-01-30T23:10:04.204Z,85.58
2024-01-30T23:12:26.027Z,85.33
2024-01-30T23:14:47.875Z,84.99
2024-01-30T23:17:09.699Z,84.61
2024-01-30T23:19:31.530Z,84.16
2024-01-30T23:21:53.456Z,84.07
2024-01-30T23:24:15.220Z,84.22
2024-01-30T23:26:42.100Z,83.91
2024-01-30T23:29:03.943Z,83.83
2024-01-30T23:31:25.765Z,83.24
2024-01-30T23:33:48.949Z,83.70
2024-01-30T23:36:11.955Z,83.62
2024-01-30T23:38:33.937Z,83.63
2024-01-30T23:40:57.088Z,83.32
2024-01-30T23:43:19.501Z,83.34
2024-01-30T23:45:41.379Z,83.36
2024-01-30T23:48:03.346Z,83.31
2024-01-30T23:50:25.238Z,83.37
2024-01-30T23:52:47.538Z,83.12
2024-01-30T23:55:10.402Z,82.64
2024-01-30T23:57:32.539Z,82.90
2024-01-30T23:59:55.260Z,82.87
